ADDS METAR Data

Data at: 0716 UTC 16 Jan 2018

METAR for:KLGA (New York/La Guardia, NY, US)
Text:KLGA 160651Z 10008KT 10SM OVC013 M04/M08 A3049 RMK AO2 SLP323 T10391083
Temperature: -3.9°C ( 25°F)
Dewpoint: -8.3°C ( 17°F) [RH = 71%]
Pressure (altimeter):30.49 inches Hg (1032.6 mb) [Sea level pressure: 1032.3 mb]
Winds:from the E (100 degrees) at 9 MPH (8 knots; 4.1 m/s)
Visibility:10 or more sm (16+ km)
Ceiling:1300 feet AGL
Clouds: overcast cloud deck at 1300 feet AGL